sensor_id;sensor_type;location;lat;lon;timestamp;pressure;altitude;pressure_sealevel;temperature;humidity
77587;BME280;66744;49.716;17.158;2023-11-21T00:00:51;98463.63;;;7.05;77.59
77587;BME280;66744;49.716;17.158;2023-11-21T00:03:52;98467.13;;;7.06;77.10
77587;BME280;66744;49.716;17.158;2023-11-21T00:06:56;98463.69;;;7.02;78.13
77587;BME280;66744;49.716;17.158;2023-11-21T00:09:57;98466.75;;;7.04;77.57
77587;BME280;66744;49.716;17.158;2023-11-21T00:12:58;98460.03;;;7.08;77.98
77587;BME280;66744;49.716;17.158;2023-11-21T00:15:59;98460.03;;;7.08;77.53
77587;BME280;66744;49.716;17.158;2023-11-21T00:19:00;98457.16;;;7.15;77.50
77587;BME280;66744;49.716;17.158;2023-11-21T00:22:03;98464.22;;;7.13;78.21
77587;BME280;66744;49.716;17.158;2023-11-21T00:25:04;98460.44;;;7.07;77.49
77587;BME280;66744;49.716;17.158;2023-11-21T00:28:06;98469.00;;;7.09;78.06
77587;BME280;66744;49.716;17.158;2023-11-21T00:31:08;98473.78;;;7.05;77.09
77587;BME280;66744;49.716;17.158;2023-11-21T00:34:10;98473.44;;;7.03;77.97
77587;BME280;66744;49.716;17.158;2023-11-21T00:37:12;98467.97;;;7.03;78.18
77587;BME280;66744;49.716;17.158;2023-11-21T00:40:13;98477.03;;;7.00;77.92
77587;BME280;66744;49.716;17.158;2023-11-21T00:43:16;98488.00;;;6.96;76.77
77587;BME280;66744;49.716;17.158;2023-11-21T00:46:17;98485.78;;;6.91;77.93
77587;BME280;66744;49.716;17.158;2023-11-21T00:49:19;98493.22;;;6.91;78.10
77587;BME280;66744;49.716;17.158;2023-11-21T00:52:21;98491.66;;;6.90;78.18
77587;BME280;66744;49.716;17.158;2023-11-21T00:55:23;98491.25;;;6.91;77.89
77587;BME280;66744;49.716;17.158;2023-11-21T00:58:24;98491.94;;;6.95;78.57
77587;BME280;66744;49.716;17.158;2023-11-21T01:01:27;98491.19;;;6.95;79.07
77587;BME280;66744;49.716;17.158;2023-11-21T01:04:28;98495.34;;;6.99;78.48
77587;BME280;66744;49.716;17.158;2023-11-21T01:07:29;98491.44;;;7.00;78.79
77587;BME280;66744;49.716;17.158;2023-11-21T01:10:30;98495.28;;;7.03;78.97
77587;BME280;66744;49.716;17.158;2023-11-21T01:13:32;98491.78;;;7.02;78.90
77587;BME280;66744;49.716;17.158;2023-11-21T01:16:33;98493.81;;;6.98;78.26
77587;BME280;66744;49.716;17.158;2023-11-21T01:19:34;98493.47;;;6.96;78.81
77587;BME280;66744;49.716;17.158;2023-11-21T01:22:35;98490.31;;;6.98;79.27
77587;BME280;66744;49.716;17.158;2023-11-21T01:25:36;98499.19;;;7.02;78.47
77587;BME280;66744;49.716;17.158;2023-11-21T01:28:38;98489.06;;;7.02;79.56
77587;BME280;66744;49.716;17.158;2023-11-21T01:31:39;98489.75;;;7.06;79.38
77587;BME280;66744;49.716;17.158;2023-11-21T01:34:40;98498.28;;;7.08;79.21
77587;BME280;66744;49.716;17.158;2023-11-21T01:37:42;98497.84;;;7.10;79.41
77587;BME280;66744;49.716;17.158;2023-11-21T01:40:43;98491.19;;;7.11;79.35
77587;BME280;66744;49.716;17.158;2023-11-21T01:43:44;98499.81;;;7.09;78.31
77587;BME280;66744;49.716;17.158;2023-11-21T01:46:46;98487.69;;;7.10;78.33
77587;BME280;66744;49.716;17.158;2023-11-21T01:49:48;98482.66;;;7.09;78.95
77587;BME280;66744;49.716;17.158;2023-11-21T01:52:50;98484.19;;;7.10;79.29
77587;BME280;66744;49.716;17.158;2023-11-21T01:55:51;98481.44;;;7.10;78.80
77587;BME280;66744;49.716;17.158;2023-11-21T01:58:54;98492.75;;;7.12;79.22
77587;BME280;66744;49.716;17.158;2023-11-21T02:02:03;98488.47;;;7.11;78.93
77587;BME280;66744;49.716;17.158;2023-11-21T02:05:07;98488.53;;;7.07;78.66
77587;BME280;66744;49.716;17.158;2023-11-21T02:08:09;98496.81;;;7.04;78.57
77587;BME280;66744;49.716;17.158;2023-11-21T02:11:10;98496.53;;;6.98;79.03
77587;BME280;66744;49.716;17.158;2023-11-21T02:14:15;98491.94;;;6.95;78.29
77587;BME280;66744;49.716;17.158;2023-11-21T02:17:16;98490.41;;;6.94;79.37
77587;BME280;66744;49.716;17.158;2023-11-21T02:20:20;98486.47;;;6.95;78.79
77587;BME280;66744;49.716;17.158;2023-11-21T02:23:23;98489.97;;;6.96;79.45
77587;BME280;66744;49.716;17.158;2023-11-21T02:26:29;98493.91;;;6.95;79.45
77587;BME280;66744;49.716;17.158;2023-11-21T02:29:30;98495.34;;;6.99;78.36
77587;BME280;66744;49.716;17.158;2023-11-21T02:32:33;98500.56;;;6.94;78.09
77587;BME280;66744;49.716;17.158;2023-11-21T02:35:35;98504.13;;;6.91;78.90
77587;BME280;66744;49.716;17.158;2023-11-21T02:38:36;98502.59;;;6.90;78.05
77587;BME280;66744;49.716;17.158;2023-11-21T02:41:37;98499.84;;;6.90;79.25
77587;BME280;66744;49.716;17.158;2023-11-21T02:44:39;98495.94;;;6.91;78.55
77587;BME280;66744;49.716;17.158;2023-11-21T02:47:41;98493.53;;;6.93;78.26
77587;BME280;66744;49.716;17.158;2023-11-21T02:50:43;98490.47;;;6.91;79.25
77587;BME280;66744;49.716;17.158;2023-11-21T02:53:44;98496.66;;;6.95;78.50
77587;BME280;66744;49.716;17.158;2023-11-21T02:56:46;98504.47;;;6.93;78.79
77587;BME280;66744;49.716;17.158;2023-11-21T02:59:48;98495.94;;;6.91;79.29
77587;BME280;66744;49.716;17.158;2023-11-21T03:02:49;98505.31;;;6.90;79.59
77587;BME280;66744;49.716;17.158;2023-11-21T03:05:51;98502.44;;;6.97;78.94
77587;BME280;66744;49.716;17.158;2023-11-21T03:08:52;98503.22;;;6.97;79.58
77587;BME280;66744;49.716;17.158;2023-11-21T03:11:53;98501.59;;;7.00;80.11
77587;BME280;66744;49.716;17.158;2023-11-21T03:14:56;98498.03;;;7.03;79.74
77587;BME280;66744;49.716;17.158;2023-11-21T03:17:57;98501.16;;;7.01;79.97
77587;BME280;66744;49.716;17.158;2023-11-21T03:20:58;98489.81;;;7.03;79.36
77587;BME280;66744;49.716;17.158;2023-11-21T03:24:00;98491.34;;;7.04;79.80
77587;BME280;66744;49.716;17.158;2023-11-21T03:27:01;98481.19;;;7.04;79.31
77587;BME280;66744;49.716;17.158;2023-11-21T03:30:03;98482.31;;;7.07;78.58
77587;BME280;66744;49.716;17.158;2023-11-21T03:33:06;98489.75;;;7.06;78.89
77587;BME280;66744;49.716;17.158;2023-11-21T03:36:09;98491.72;;;7.06;79.80
77587;BME280;66744;49.716;17.158;2023-11-21T03:39:10;98496.81;;;7.04;79.97
77587;BME280;66744;49.716;17.158;2023-11-21T03:42:11;98499.28;;;6.98;79.85
77587;BME280;66744;49.716;17.158;2023-11-21T03:45:13;98505.69;;;6.92;79.32
77587;BME280;66744;49.716;17.158;2023-11-21T03:48:15;98501.97;;;6.82;80.66
77587;BME280;66744;49.716;17.158;2023-11-21T03:51:17;98490.28;;;6.82;80.33
77587;BME280;66744;49.716;17.158;2023-11-21T03:54:18;98496.09;;;6.84;80.75
77587;BME280;66744;49.716;17.158;2023-11-21T03:57:19;98496.00;;;6.87;80.16
77587;BME280;66744;49.716;17.158;2023-11-21T04:00:20;98499.38;;;6.95;80.18
77587;BME280;66744;49.716;17.158;2023-11-21T04:03:22;98500.38;;;7.01;79.55
77587;BME280;66744;49.716;17.158;2023-11-21T04:06:23;98513.56;;;7.06;79.52
77587;BME280;66744;49.716;17.158;2023-11-21T04:09:24;98505.38;;;7.06;79.52
77587;BME280;66744;49.716;17.158;2023-11-21T04:12:26;98501.84;;;7.05;79.77
77587;BME280;66744;49.716;17.158;2023-11-21T04:15:27;98496.41;;;7.05;80.60
77587;BME280;66744;49.716;17.158;2023-11-21T04:18:28;98493.66;;;7.05;79.43
77587;BME280;66744;49.716;17.158;2023-11-21T04:21:29;98500.75;;;7.03;79.03
77587;BME280;66744;49.716;17.158;2023-11-21T04:24:31;98505.50;;;6.99;78.98
77587;BME280;66744;49.716;17.158;2023-11-21T04:27:32;98508.75;;;6.94;80.08
77587;BME280;66744;49.716;17.158;2023-11-21T04:30:33;98509.09;;;6.96;79.63
77587;BME280;66744;49.716;17.158;2023-11-21T04:33:34;98510.63;;;6.97;80.03
77587;BME280;66744;49.716;17.158;2023-11-21T04:36:36;98514.03;;;7.01;80.44
77587;BME280;66744;49.716;17.158;2023-11-21T04:39:37;98510.19;;;6.98;80.28
77587;BME280;66744;49.716;17.158;2023-11-21T04:42:38;98514.47;;;6.99;80.27
77587;BME280;66744;49.716;17.158;2023-11-21T04:45:40;98517.22;;;6.99;79.17
77587;BME280;66744;49.716;17.158;2023-11-21T04:48:42;98522.66;;;6.99;79.65
77587;BME280;66744;49.716;17.158;2023-11-21T04:51:43;98513.28;;;7.00;80.03
77587;BME280;66744;49.716;17.158;2023-11-21T04:54:44;98515.59;;;7.02;79.71
77587;BME280;66744;49.716;17.158;2023-11-21T04:57:45;98526.09;;;7.03;80.03
77587;BME280;66744;49.716;17.158;2023-11-21T05:00:48;98517.06;;;7.06;80.08
77587;BME280;66744;49.716;17.158;2023-11-21T05:03:50;98523.63;;;7.09;79.57
77587;BME280;66744;49.716;17.158;2023-11-21T05:06:53;98522.41;;;7.10;79.48
77587;BME280;66744;49.716;17.158;2023-11-21T05:09:57;98528.31;;;7.08;80.12
77587;BME280;66744;49.716;17.158;2023-11-21T05:12:58;98520.19;;;7.05;80.05
77587;BME280;66744;49.716;17.158;2023-11-21T05:15:59;98521.03;;;7.02;79.64
77587;BME280;66744;49.716;17.158;2023-11-21T05:19:01;98518.81;;;6.97;78.80
77587;BME280;66744;49.716;17.158;2023-11-21T05:22:03;98521.69;;;6.90;79.18
77587;BME280;66744;49.716;17.158;2023-11-21T05:25:05;98530.47;;;6.81;78.86
77587;BME280;66744;49.716;17.158;2023-11-21T05:28:06;98532.06;;;6.79;79.58
77587;BME280;66744;49.716;17.158;2023-11-21T05:31:08;98519.97;;;6.80;78.84
77587;BME280;66744;49.716;17.158;2023-11-21T05:34:09;98523.19;;;6.75;78.22
77587;BME280;66744;49.716;17.158;2023-11-21T05:37:10;98529.16;;;6.69;78.92
77587;BME280;66744;49.716;17.158;2023-11-21T05:40:12;98541.34;;;6.65;79.44
77587;BME280;66744;49.716;17.158;2023-11-21T05:43:13;98541.03;;;6.59;79.16
77587;BME280;66744;49.716;17.158;2023-11-21T05:46:16;98541.19;;;6.52;80.54
77587;BME280;66744;49.716;17.158;2023-11-21T05:49:17;98533.34;;;6.54;80.23
77587;BME280;66744;49.716;17.158;2023-11-21T05:52:22;98544.19;;;6.58;79.31
77587;BME280;66744;49.716;17.158;2023-11-21T05:55:23;98548.47;;;6.59;80.51
77587;BME280;66744;49.716;17.158;2023-11-21T05:58:26;98544.19;;;6.58;79.93
77587;BME280;66744;49.716;17.158;2023-11-21T06:01:27;98550.81;;;6.57;79.65
77587;BME280;66744;49.716;17.158;2023-11-21T06:04:29;98546.59;;;6.56;79.36
77587;BME280;66744;49.716;17.158;2023-11-21T06:07:30;98542.66;;;6.57;79.97
77587;BME280;66744;49.716;17.158;2023-11-21T06:10:31;98557.50;;;6.56;78.88
77587;BME280;66744;49.716;17.158;2023-11-21T06:13:32;98559.91;;;6.50;78.65
77587;BME280;66744;49.716;17.158;2023-11-21T06:16:33;98556.84;;;6.48;79.89
77587;BME280;66744;49.716;17.158;2023-11-21T06:19:34;98559.28;;;6.43;80.20
77587;BME280;66744;49.716;17.158;2023-11-21T06:22:37;98562.47;;;6.41;79.20
77587;BME280;66744;49.716;17.158;2023-11-21T06:25:38;98560.06;;;6.43;80.90
77587;BME280;66744;49.716;17.158;2023-11-21T06:28:40;98564.69;;;6.46;80.18
77587;BME280;66744;49.716;17.158;2023-11-21T06:31:42;98576.66;;;6.52;81.12
77587;BME280;66744;49.716;17.158;2023-11-21T06:34:44;98581.22;;;6.59;80.02
77587;BME280;66744;49.716;17.158;2023-11-21T06:37:46;98579.94;;;6.63;80.52
77587;BME280;66744;49.716;17.158;2023-11-21T06:40:48;98583.03;;;6.65;81.13
77587;BME280;66744;49.716;17.158;2023-11-21T06:43:49;98578.63;;;6.71;82.01
77587;BME280;66744;49.716;17.158;2023-11-21T06:46:51;98582.41;;;6.78;81.44
77587;BME280;66744;49.716;17.158;2023-11-21T06:49:52;98589.34;;;6.82;81.20
77587;BME280;66744;49.716;17.158;2023-11-21T06:52:54;98581.94;;;6.83;81.67
77587;BME280;66744;49.716;17.158;2023-11-21T06:55:55;98576.47;;;6.83;81.41
77587;BME280;66744;49.716;17.158;2023-11-21T06:58:56;98580.66;;;6.87;81.40
77587;BME280;66744;49.716;17.158;2023-11-21T07:01:57;98587.22;;;6.90;81.33
77587;BME280;66744;49.716;17.158;2023-11-21T07:04:59;98583.66;;;6.93;80.87
77587;BME280;66744;49.716;17.158;2023-11-21T07:08:00;98583.94;;;6.98;81.40
77587;BME280;66744;49.716;17.158;2023-11-21T07:11:05;98585.41;;;7.03;81.42
77587;BME280;66744;49.716;17.158;2023-11-21T07:14:06;98590.38;;;7.08;81.16
77587;BME280;66744;49.716;17.158;2023-11-21T07:17:11;98587.50;;;7.15;81.29
77587;BME280;66744;49.716;17.158;2023-11-21T07:20:16;98592.44;;;7.20;81.37
77587;BME280;66744;49.716;17.158;2023-11-21T07:23:18;98593.56;;;7.22;81.50
77587;BME280;66744;49.716;17.158;2023-11-21T07:26:19;98599.94;;;7.16;80.67
77587;BME280;66744;49.716;17.158;2023-11-21T07:29:20;98594.66;;;7.09;81.41
77587;BME280;66744;49.716;17.158;2023-11-21T07:32:21;98605.97;;;7.07;82.70
77587;BME280;66744;49.716;17.158;2023-11-21T07:35:22;98606.34;;;7.09;82.17
77587;BME280;66744;49.716;17.158;2023-11-21T07:38:23;98604.22;;;7.17;82.37
77587;BME280;66744;49.716;17.158;2023-11-21T07:41:25;98613.97;;;7.18;80.65
77587;BME280;66744;49.716;17.158;2023-11-21T07:44:26;98615.00;;;7.24;81.73
77587;BME280;66744;49.716;17.158;2023-11-21T07:47:27;98614.25;;;7.23;82.56
77587;BME280;66744;49.716;17.158;2023-11-21T07:50:29;98619.53;;;7.31;81.34
77587;BME280;66744;49.716;17.158;2023-11-21T07:53:30;98617.94;;;7.33;81.72
77587;BME280;66744;49.716;17.158;2023-11-21T07:56:31;98611.63;;;7.36;82.12
77587;BME280;66744;49.716;17.158;2023-11-21T07:59:33;98615.81;;;7.41;81.97
77587;BME280;66744;49.716;17.158;2023-11-21T08:02:34;98612.94;;;7.48;81.31
77587;BME280;66744;49.716;17.158;2023-11-21T08:05:36;98612.84;;;7.51;80.84
77587;BME280;66744;49.716;17.158;2023-11-21T08:08:37;98607.28;;;7.55;81.34
77587;BME280;66744;49.716;17.158;2023-11-21T08:11:38;98613.88;;;7.57;80.59
77587;BME280;66744;49.716;17.158;2023-11-21T08:14:40;98620.88;;;7.58;81.24
77587;BME280;66744;49.716;17.158;2023-11-21T08:17:41;98621.16;;;7.64;81.11
77587;BME280;66744;49.716;17.158;2023-11-21T08:20:44;98625.78;;;7.67;80.22
77587;BME280;66744;49.716;17.158;2023-11-21T08:23:45;98616.31;;;7.71;80.32
77587;BME280;66744;49.716;17.158;2023-11-21T08:26:47;98626.03;;;7.72;81.05
77587;BME280;66744;49.716;17.158;2023-11-21T08:29:49;98631.09;;;7.74;80.69
77587;BME280;66744;49.716;17.158;2023-11-21T08:32:50;98633.56;;;7.68;80.64
77587;BME280;66744;49.716;17.158;2023-11-21T08:35:54;98633.97;;;7.67;81.51
77587;BME280;66744;49.716;17.158;2023-11-21T08:38:55;98634.75;;;7.67;81.18
77587;BME280;66744;49.716;17.158;2023-11-21T08:41:57;98640.97;;;7.68;81.23
77587;BME280;66744;49.716;17.158;2023-11-21T08:44:58;98633.47;;;7.72;81.83
77587;BME280;66744;49.716;17.158;2023-11-21T08:48:00;98637.06;;;7.69;81.60
77587;BME280;66744;49.716;17.158;2023-11-21T08:51:03;98641.31;;;7.70;81.51
77587;BME280;66744;49.716;17.158;2023-11-21T08:54:05;98645.69;;;7.67;81.99
77587;BME280;66744;49.716;17.158;2023-11-21T08:57:08;98640.34;;;7.60;81.95
77587;BME280;66744;49.716;17.158;2023-11-21T09:00:10;98647.44;;;7.58;82.64
77587;BME280;66744;49.716;17.158;2023-11-21T09:03:16;98657.53;;;7.61;82.56
77587;BME280;66744;49.716;17.158;2023-11-21T09:06:18;98639.94;;;7.62;83.18
77587;BME280;66744;49.716;17.158;2023-11-21T09:09:19;98643.47;;;7.62;83.67
77587;BME280;66744;49.716;17.158;2023-11-21T09:12:20;98637.13;;;7.65;84.62
77587;BME280;66744;49.716;17.158;2023-11-21T09:15:22;98633.56;;;7.68;84.13
77587;BME280;66744;49.716;17.158;2023-11-21T09:18:23;98634.59;;;7.74;83.17
77587;BME280;66744;49.716;17.158;2023-11-21T09:21:24;98632.53;;;7.78;83.65
77587;BME280;66744;49.716;17.158;2023-11-21T09:24:26;98641.50;;;7.79;83.88
77587;BME280;66744;49.716;17.158;2023-11-21T09:27:27;98643.66;;;7.88;83.90
77587;BME280;66744;49.716;17.158;2023-11-21T09:30:29;98638.88;;;7.92;83.78
77587;BME280;66744;49.716;17.158;2023-11-21T09:33:31;98639.56;;;7.96;83.48
77587;BME280;66744;49.716;17.158;2023-11-21T09:36:33;98650.41;;;7.99;83.11
77587;BME280;66744;49.716;17.158;2023-11-21T09:39:34;98657.34;;;8.04;83.04
77587;BME280;66744;49.716;17.158;2023-11-21T09:42:40;98653.69;;;8.10;83.03
77587;BME280;66744;49.716;17.158;2023-11-21T09:45:54;98656.41;;;8.10;83.12
77587;BME280;66744;49.716;17.158;2023-11-21T09:49:00;98641.53;;;8.11;83.42
77587;BME280;66744;49.716;17.158;2023-11-21T09:52:04;98646.50;;;8.16;83.31
77587;BME280;66744;49.716;17.158;2023-11-21T09:55:07;98641.03;;;8.16;83.52
77587;BME280;66744;49.716;17.158;2023-11-21T09:58:08;98638.19;;;8.20;83.23
77587;BME280;66744;49.716;17.158;2023-11-21T10:01:13;98632.63;;;8.23;82.93
77587;BME280;66744;49.716;17.158;2023-11-21T10:04:15;98638.88;;;8.24;83.61
77587;BME280;66744;49.716;17.158;2023-11-21T10:07:19;98638.09;;;8.23;84.54
77587;BME280;66744;49.716;17.158;2023-11-21T10:10:22;98638.53;;;8.22;84.00
77587;BME280;66744;49.716;17.158;2023-11-21T10:13:24;98636.31;;;8.17;84.29
77587;BME280;66744;49.716;17.158;2023-11-21T10:16:28;98644.09;;;8.18;84.61
77587;BME280;66744;49.716;17.158;2023-11-21T10:19:30;98640.25;;;8.16;84.79
77587;BME280;66744;49.716;17.158;2023-11-21T10:22:31;98640.66;;;8.14;85.13
77587;BME280;66744;49.716;17.158;2023-11-21T10:25:33;98648.88;;;8.14;84.96
77587;BME280;66744;49.716;17.158;2023-11-21T10:28:35;98644.44;;;8.20;85.85
77587;BME280;66744;49.716;17.158;2023-11-21T10:31:38;98658.38;;;8.26;85.05
77587;BME280;66744;49.716;17.158;2023-11-21T10:34:40;98652.84;;;8.29;85.13
77587;BME280;66744;49.716;17.158;2023-11-21T10:37:42;98656.03;;;8.28;84.73
77587;BME280;66744;49.716;17.158;2023-11-21T10:40:46;98657.97;;;8.27;84.96
77587;BME280;66744;49.716;17.158;2023-11-21T10:43:48;98659.91;;;8.27;84.21
77587;BME280;66744;49.716;17.158;2023-11-21T10:46:50;98656.75;;;8.28;84.92
77587;BME280;66744;49.716;17.158;2023-11-21T10:49:53;98652.84;;;8.29;85.34
77587;BME280;66744;49.716;17.158;2023-11-21T10:52:54;98654.31;;;8.34;85.86
77587;BME280;66744;49.716;17.158;2023-11-21T10:56:06;98649.56;;;8.34;85.48
77587;BME280;66744;49.716;17.158;2023-11-21T10:59:10;98648.38;;;8.35;85.08
77587;BME280;66744;49.716;17.158;2023-11-21T11:02:24;98656.19;;;8.37;84.88
77587;BME280;66744;49.716;17.158;2023-11-21T11:05:33;98647.81;;;8.28;84.69
77587;BME280;66744;49.716;17.158;2023-11-21T11:08:39;98650.03;;;8.33;85.00
77587;BME280;66744;49.716;17.158;2023-11-21T11:11:40;98657.47;;;8.32;84.18
77587;BME280;66744;49.716;17.158;2023-11-21T11:14:48;98658.16;;;8.36;83.89
77587;BME280;66744;49.716;17.158;2023-11-21T11:17:49;98653.00;;;8.38;84.25
77587;BME280;66744;49.716;17.158;2023-11-21T11:20:51;98649.16;;;8.36;84.45
77587;BME280;66744;49.716;17.158;2023-11-21T11:27:15;98642.66;;;8.46;84.40
77587;BME280;66744;49.716;17.158;2023-11-21T11:30:52;98643.91;;;8.58;84.41
77587;BME280;66744;49.716;17.158;2023-11-21T11:34:41;98644.94;;;8.64;83.64
77587;BME280;66744;49.716;17.158;2023-11-21T11:37:40;98644.50;;;8.65;83.41
77587;BME280;66744;49.716;17.158;2023-11-21T11:40:45;98652.63;;;8.69;83.48
77587;BME280;66744;49.716;17.158;2023-11-21T11:43:46;98648.34;;;8.68;83.50
77587;BME280;66744;49.716;17.158;2023-11-21T11:46:47;98648.78;;;8.66;84.17
77587;BME280;66744;49.716;17.158;2023-11-21T11:50:05;98646.91;;;8.63;84.50
77587;BME280;66744;49.716;17.158;2023-11-21T11:53:14;98647.16;;;8.69;83.75
77587;BME280;66744;49.716;17.158;2023-11-21T11:59:23;98649.88;;;8.69;84.42
77587;BME280;66744;49.716;17.158;2023-11-21T12:02:25;98647.47;;;8.71;84.34
77587;BME280;66744;49.716;17.158;2023-11-21T12:05:26;98650.03;;;8.78;83.74
77587;BME280;66744;49.716;17.158;2023-11-21T12:08:34;98641.03;;;8.77;83.50
77587;BME280;66744;49.716;17.158;2023-11-21T12:11:36;98643.94;;;8.86;83.87
77587;BME280;66744;49.716;17.158;2023-11-21T12:14:38;98635.94;;;8.92;83.48
77587;BME280;66744;49.716;17.158;2023-11-21T12:17:43;98641.34;;;8.96;83.71
77587;BME280;66744;49.716;17.158;2023-11-21T12:20:44;98635.00;;;8.99;84.11
77587;BME280;66744;49.716;17.158;2023-11-21T12:23:47;98630.28;;;8.99;83.65
77587;BME280;66744;49.716;17.158;2023-11-21T12:26:49;98634.25;;;9.11;84.80
77587;BME280;66744;49.716;17.158;2023-11-21T12:29:50;98621.97;;;9.15;84.34
77587;BME280;66744;49.716;17.158;2023-11-21T12:32:52;98632.22;;;9.27;83.62
77587;BME280;66744;49.716;17.158;2023-11-21T12:35:54;98626.19;;;9.32;83.81
77587;BME280;66744;49.716;17.158;2023-11-21T12:38:55;98625.97;;;9.39;83.68
77587;BME280;66744;49.716;17.158;2023-11-21T12:41:57;98628.41;;;9.37;83.75
77587;BME280;66744;49.716;17.158;2023-11-21T12:45:18;98633.44;;;9.39;84.45
77587;BME280;66744;49.716;17.158;2023-11-21T12:48:20;98627.84;;;9.42;84.32
77587;BME280;66744;49.716;17.158;2023-11-21T12:51:25;98632.47;;;9.45;82.98
77587;BME280;66744;49.716;17.158;2023-11-21T12:54:27;98630.41;;;9.49;83.02
77587;BME280;66744;49.716;17.158;2023-11-21T12:57:28;98633.47;;;9.52;82.40
77587;BME280;66744;49.716;17.158;2023-11-21T13:00:35;98631.81;;;9.54;82.76
77587;BME280;66744;49.716;17.158;2023-11-21T13:03:40;98640.72;;;9.58;82.53
77587;BME280;66744;49.716;17.158;2023-11-21T13:06:41;98638.50;;;9.53;83.33
77587;BME280;66744;49.716;17.158;2023-11-21T13:09:42;98644.31;;;9.55;81.87
77587;BME280;66744;49.716;17.158;2023-11-21T13:12:45;98642.56;;;9.48;83.52
77587;BME280;66744;49.716;17.158;2023-11-21T13:15:54;98636.50;;;9.28;84.92
77587;BME280;66744;49.716;17.158;2023-11-21T13:18:58;98645.44;;;9.16;83.90
77587;BME280;66744;49.716;17.158;2023-11-21T13:21:59;98645.72;;;9.06;84.32
77587;BME280;66744;49.716;17.158;2023-11-21T13:25:04;98648.81;;;9.08;83.87
77587;BME280;66744;49.716;17.158;2023-11-21T13:28:08;98646.66;;;9.15;84.64
77587;BME280;66744;49.716;17.158;2023-11-21T13:31:10;98644.78;;;9.12;84.61
77587;BME280;66744;49.716;17.158;2023-11-21T13:34:21;98654.97;;;9.12;84.79
77587;BME280;66744;49.716;17.158;2023-11-21T13:37:23;98653.00;;;9.12;84.19
77587;BME280;66744;49.716;17.158;2023-11-21T13:40:26;98662.22;;;9.18;84.71
77587;BME280;66744;49.716;17.158;2023-11-21T13:43:28;98657.41;;;9.22;83.43
77587;BME280;66744;49.716;17.158;2023-11-21T13:46:29;98660.06;;;9.26;83.47
77587;BME280;66744;49.716;17.158;2023-11-21T13:49:37;98653.47;;;9.23;83.01
77587;BME280;66744;49.716;17.158;2023-11-21T13:52:42;98660.94;;;9.23;83.38
77587;BME280;66744;49.716;17.158;2023-11-21T13:55:46;98661.72;;;9.23;83.23
77587;BME280;66744;49.716;17.158;2023-11-21T13:58:47;98663.13;;;9.28;84.00
77587;BME280;66744;49.716;17.158;2023-11-21T14:01:52;98673.31;;;9.27;83.41
77587;BME280;66744;49.716;17.158;2023-11-21T14:04:56;98678.72;;;9.31;84.03
77587;BME280;66744;49.716;17.158;2023-11-21T14:08:01;98679.16;;;9.29;82.91
77587;BME280;66744;49.716;17.158;2023-11-21T14:11:07;98678.06;;;9.39;82.82
77587;BME280;66744;49.716;17.158;2023-11-21T14:14:08;98678.06;;;9.39;82.38
77587;BME280;66744;49.716;17.158;2023-11-21T14:17:11;98672.34;;;9.34;83.52
77587;BME280;66744;49.716;17.158;2023-11-21T14:20:12;98671.72;;;9.42;82.68
77587;BME280;66744;49.716;17.158;2023-11-21T14:23:16;98682.50;;;9.49;83.61
77587;BME280;66744;49.716;17.158;2023-11-21T14:26:19;98679.97;;;9.55;83.26
77587;BME280;66744;49.716;17.158;2023-11-21T14:29:21;98691.25;;;9.57;82.95
77587;BME280;66744;49.716;17.158;2023-11-21T14:32:24;98699.50;;;9.57;83.25
77587;BME280;66744;49.716;17.158;2023-11-21T14:35:27;98690.50;;;9.57;81.33
77587;BME280;66744;49.716;17.158;2023-11-21T14:38:28;98706.63;;;9.55;81.25
77587;BME280;66744;49.716;17.158;2023-11-21T14:41:29;98692.13;;;9.54;81.83
77587;BME280;66744;49.716;17.158;2023-11-21T14:44:31;98691.25;;;9.57;82.08
77587;BME280;66744;49.716;17.158;2023-11-21T14:47:36;98692.03;;;9.58;81.70
77587;BME280;66744;49.716;17.158;2023-11-21T14:50:42;98702.31;;;9.54;81.35
77587;BME280;66744;49.716;17.158;2023-11-21T14:53:43;98699.25;;;9.52;82.07
77587;BME280;66744;49.716;17.158;2023-11-21T14:56:54;98699.25;;;9.52;82.62
77587;BME280;66744;49.716;17.158;2023-11-21T14:59:55;98698.25;;;9.45;81.92
77587;BME280;66744;49.716;17.158;2023-11-21T15:03:01;98700.78;;;9.40;81.13
77587;BME280;66744;49.716;17.158;2023-11-21T15:06:05;98702.41;;;9.37;80.93
77587;BME280;66744;49.716;17.158;2023-11-21T15:09:24;98693.31;;;9.40;79.79
77587;BME280;66744;49.716;17.158;2023-11-21T15:12:37;98698.81;;;9.40;79.56
77587;BME280;66744;49.716;17.158;2023-11-21T15:15:42;98700.78;;;9.40;79.56
77587;BME280;66744;49.716;17.158;2023-11-21T15:18:43;98711.41;;;9.38;79.74
77587;BME280;66744;49.716;17.158;2023-11-21T15:21:44;98711.84;;;9.36;80.19
77587;BME280;66744;49.716;17.158;2023-11-21T15:24:48;98712.16;;;9.38;80.26
77587;BME280;66744;49.716;17.158;2023-11-21T15:27:50;98716.13;;;9.37;78.77
77587;BME280;66744;49.716;17.158;2023-11-21T15:30:52;98715.78;;;9.35;78.48
77587;BME280;66744;49.716;17.158;2023-11-21T15:33:53;98725.13;;;9.38;79.03
77587;BME280;66744;49.716;17.158;2023-11-21T15:36:55;98729.84;;;9.37;78.37
77587;BME280;66744;49.716;17.158;2023-11-21T15:39:56;98728.38;;;9.33;78.20
77587;BME280;66744;49.716;17.158;2023-11-21T15:42:57;98727.28;;;9.30;78.54
77587;BME280;66744;49.716;17.158;2023-11-21T15:45:59;98735.81;;;9.20;78.68
77587;BME280;66744;49.716;17.158;2023-11-21T15:49:02;98738.81;;;9.09;79.27
77587;BME280;66744;49.716;17.158;2023-11-21T15:52:11;98740.44;;;9.07;79.08
77587;BME280;66744;49.716;17.158;2023-11-21T15:55:13;98741.22;;;9.07;80.22
77587;BME280;66744;49.716;17.158;2023-11-21T15:58:14;98746.38;;;9.05;79.74
77587;BME280;66744;49.716;17.158;2023-11-21T16:01:15;98735.28;;;9.09;79.42
77587;BME280;66744;49.716;17.158;2023-11-21T16:04:16;98738.16;;;9.05;79.49
77587;BME280;66744;49.716;17.158;2023-11-21T16:07:18;98740.28;;;8.98;80.11
77587;BME280;66744;49.716;17.158;2023-11-21T16:10:19;98748.09;;;8.99;79.08
77587;BME280;66744;49.716;17.158;2023-11-21T16:13:20;98744.50;;;9.02;79.67